createdAt,value
2022-12-19T00:01:38.729Z,-3.90
2022-12-19T00:04:09.952Z,-3.90
2022-12-19T00:06:43.536Z,-3.90
2022-12-19T00:09:12.317Z,-3.80
2022-12-19T00:11:40.611Z,-3.70
2022-12-19T00:14:11.018Z,-3.70
2022-12-19T00:16:38.255Z,-3.70
2022-12-19T00:19:06.128Z,-3.70
2022-12-19T00:21:35.191Z,-3.60
2022-12-19T00:24:20.040Z,-3.60
2022-12-19T00:26:48.466Z,-3.60
2022-12-19T00:29:15.680Z,-3.60
2022-12-19T00:31:43.668Z,-3.60
2022-12-19T00:34:10.956Z,-3.70
2022-12-19T00:36:40.275Z,-3.60
2022-12-19T00:39:08.764Z,-3.60
2022-12-19T00:41:41.856Z,-3.60
2022-12-19T00:44:12.389Z,-3.60
2022-12-19T00:46:39.534Z,-3.60
2022-12-19T00:49:07.192Z,-3.60
2022-12-19T00:51:37.014Z,-3.50
2022-12-19T00:54:06.772Z,-3.50
2022-12-19T00:56:37.575Z,-3.50
2022-12-19T00:59:07.264Z,-3.70
2022-12-19T01:01:37.770Z,-3.70
2022-12-19T01:06:58.018Z,-3.50
2022-12-19T01:09:33.244Z,-3.50
2022-12-19T01:12:19.267Z,-3.40
2022-12-19T01:14:48.148Z,-3.40
2022-12-19T01:17:15.342Z,-3.40
2022-12-19T01:19:44.536Z,-3.40
2022-12-19T01:22:14.997Z,-3.50
2022-12-19T01:24:42.414Z,-3.40
2022-12-19T01:27:09.594Z,-3.40
2022-12-19T01:29:45.549Z,-3.40
2022-12-19T01:32:20.705Z,-3.30
2022-12-19T01:34:47.885Z,-3.30
2022-12-19T01:37:15.032Z,-3.30
2022-12-19T01:39:42.264Z,-3.30
2022-12-19T01:42:36.320Z,-3.30
2022-12-19T01:45:13.319Z,-3.20
2022-12-19T01:47:54.974Z,-3.30
2022-12-19T01:50:41.420Z,-3.20
2022-12-19T01:53:22.987Z,-3.30
2022-12-19T01:55:50.778Z,-3.20
2022-12-19T01:58:18.371Z,-3.30
2022-12-19T02:00:45.882Z,-3.20
2022-12-19T02:03:22.352Z,-3.20
2022-12-19T02:05:51.852Z,-3.20
2022-12-19T02:08:21.352Z,-3.20
2022-12-19T02:10:51.023Z,-3.20
2022-12-19T02:13:18.633Z,-3.20
2022-12-19T02:15:57.296Z,-3.20
2022-12-19T02:18:51.821Z,-3.20
2022-12-19T02:21:43.021Z,-3.20
2022-12-19T02:24:40.210Z,-3.20
2022-12-19T02:27:43.125Z,-3.20
2022-12-19T02:30:17.537Z,-3.30
2022-12-19T02:33:04.858Z,-3.30
2022-12-19T02:35:53.740Z,-3.30
2022-12-19T02:38:39.863Z,-3.30
2022-12-19T02:41:18.757Z,-3.30
2022-12-19T02:43:50.776Z,-3.30
2022-12-19T02:46:28.437Z,-3.40
2022-12-19T02:48:57.030Z,-3.50
2022-12-19T02:51:24.309Z,-3.50
2022-12-19T02:53:51.836Z,-3.40
2022-12-19T02:56:40.303Z,-3.50
2022-12-19T02:59:13.426Z,-3.50
2022-12-19T03:01:58.966Z,-3.50
2022-12-19T03:04:48.143Z,-3.40
2022-12-19T03:07:34.090Z,-3.40
2022-12-19T03:10:29.642Z,-3.40
2022-12-19T03:13:02.373Z,-3.40
2022-12-19T03:15:31.640Z,-3.30
2022-12-19T03:18:01.236Z,-3.30
2022-12-19T03:21:06.652Z,-3.30
2022-12-19T03:23:34.542Z,-3.30
2022-12-19T03:26:06.959Z,-3.40
2022-12-19T03:28:46.687Z,-3.30
2022-12-19T03:31:16.906Z,-3.30
2022-12-19T03:33:47.744Z,-3.30
2022-12-19T03:36:21.109Z,-3.30
2022-12-19T03:38:49.830Z,-3.40
2022-12-19T03:41:41.450Z,-3.30
2022-12-19T03:44:11.290Z,-3.30
2022-12-19T03:46:45.913Z,-3.30
2022-12-19T03:49:13.729Z,-3.30
2022-12-19T03:51:48.261Z,-3.20
2022-12-19T03:54:20.723Z,-3.20
2022-12-19T03:57:07.639Z,-3.20
2022-12-19T03:59:34.952Z,-3.20
2022-12-19T04:02:04.352Z,-3.20
2022-12-19T04:04:36.380Z,-3.20
2022-12-19T04:07:05.275Z,-3.20
2022-12-19T04:09:35.202Z,-3.10
2022-12-19T04:12:06.023Z,-3.10
2022-12-19T04:14:37.783Z,-3.10
2022-12-19T04:17:47.158Z,-3.00
2022-12-19T04:20:20.695Z,-3.00
2022-12-19T04:22:47.828Z,-3.20
2022-12-19T04:25:18.738Z,-3.20
2022-12-19T04:27:52.033Z,-3.10
2022-12-19T04:30:19.994Z,-3.10
2022-12-19T04:32:48.282Z,-3.00
2022-12-19T04:35:15.614Z,-3.00
2022-12-19T04:37:43.515Z,-3.00
2022-12-19T04:40:11.879Z,-3.00
2022-12-19T04:42:39.212Z,-2.90
2022-12-19T04:45:06.894Z,-2.90
2022-12-19T04:47:34.111Z,-2.90
2022-12-19T04:50:01.238Z,-2.80
2022-12-19T04:52:28.437Z,-2.80
2022-12-19T04:54:55.588Z,-2.80
2022-12-19T04:57:22.880Z,-2.80
2022-12-19T04:59:50.073Z,-2.80
2022-12-19T05:02:17.300Z,-2.70
2022-12-19T05:04:44.590Z,-2.80
2022-12-19T05:07:13.673Z,-2.70
2022-12-19T05:09:41.690Z,-2.70
2022-12-19T05:12:10.111Z,-2.70
2022-12-19T05:14:37.323Z,-2.70
2022-12-19T05:17:04.893Z,-2.60
2022-12-19T05:19:32.206Z,-2.60
2022-12-19T05:21:59.733Z,-2.50
2022-12-19T05:24:27.113Z,-2.50
2022-12-19T05:26:54.297Z,-2.50
2022-12-19T05:29:21.492Z,-2.40
2022-12-19T05:31:48.705Z,-2.40
2022-12-19T05:34:15.921Z,-2.40
2022-12-19T05:36:43.104Z,-2.40
2022-12-19T05:39:11.517Z,-2.30
2022-12-19T05:41:38.736Z,-2.30
2022-12-19T05:44:05.874Z,-2.20
2022-12-19T05:46:33.214Z,-2.20
2022-12-19T05:49:00.435Z,-2.20
2022-12-19T05:51:27.930Z,-2.20
2022-12-19T05:53:55.098Z,-2.20
2022-12-19T05:56:22.905Z,-2.10
2022-12-19T05:58:50.331Z,-2.10
2022-12-19T06:01:26.238Z,-2.00
2022-12-19T06:03:54.988Z,-2.00
2022-12-19T06:06:24.345Z,-2.00
2022-12-19T06:08:58.801Z,-2.00
2022-12-19T06:11:27.024Z,-2.00
2022-12-19T06:13:54.237Z,-2.00
2022-12-19T06:16:22.826Z,-2.00
2022-12-19T06:18:50.671Z,-2.00
2022-12-19T06:21:20.560Z,-1.90
2022-12-19T06:23:48.119Z,-1.90
2022-12-19T06:26:20.008Z,-1.90
2022-12-19T06:28:48.738Z,-1.90
2022-12-19T06:31:16.318Z,-1.90
2022-12-19T06:33:43.535Z,-1.80
2022-12-19T06:36:15.781Z,-1.80
2022-12-19T06:38:43.149Z,-1.70
2022-12-19T06:41:29.316Z,-1.70
2022-12-19T06:44:01.411Z,-1.70
2022-12-19T06:46:29.303Z,-1.60
2022-12-19T06:48:56.652Z,-1.70
2022-12-19T06:51:24.123Z,-1.70
2022-12-19T06:53:51.582Z,-1.70
2022-12-19T06:56:20.110Z,-1.70
2022-12-19T06:58:47.617Z,-1.70
2022-12-19T07:01:24.542Z,-1.70
2022-12-19T07:03:52.098Z,-1.70
2022-12-19T07:06:19.408Z,-1.70
2022-12-19T07:08:46.561Z,-1.60
2022-12-19T07:11:13.746Z,-1.60
2022-12-19T07:13:40.999Z,-1.60
2022-12-19T07:16:08.547Z,-1.60
2022-12-19T07:18:38.653Z,-1.50
2022-12-19T07:21:07.706Z,-1.50
2022-12-19T07:23:35.538Z,-1.40
2022-12-19T07:26:03.088Z,-1.40
2022-12-19T07:28:30.481Z,-1.30
2022-12-19T07:30:57.624Z,-1.20
2022-12-19T07:33:24.783Z,-1.20
2022-12-19T07:35:52.296Z,-1.10
2022-12-19T07:38:19.444Z,-1.10
2022-12-19T07:40:46.611Z,-1.00
2022-12-19T07:43:13.779Z,-1.00
2022-12-19T07:45:41.198Z,-0.90
2022-12-19T07:48:08.655Z,-0.80
2022-12-19T07:50:36.120Z,-0.70
2022-12-19T07:53:03.404Z,-0.70
2022-12-19T07:55:30.760Z,-0.60
2022-12-19T07:57:59.543Z,-0.60
2022-12-19T08:00:26.821Z,-0.50
2022-12-19T08:02:54.044Z,-0.40
2022-12-19T08:05:24.022Z,-0.30
2022-12-19T08:07:54.434Z,-0.20
2022-12-19T08:10:22.813Z,-0.10
2022-12-19T08:12:50.014Z,0.00
2022-12-19T08:15:17.700Z,0.10
2022-12-19T08:17:45.002Z,0.20
2022-12-19T08:20:12.450Z,0.30
2022-12-19T08:22:39.992Z,0.40
2022-12-19T08:25:08.228Z,0.50
2022-12-19T08:27:36.098Z,0.60
2022-12-19T08:30:04.111Z,0.70
2022-12-19T08:32:31.310Z,0.70
2022-12-19T08:34:58.462Z,0.80
2022-12-19T08:37:25.656Z,0.90
2022-12-19T08:39:52.855Z,1.00
2022-12-19T08:42:20.009Z,1.10
2022-12-19T08:44:47.187Z,1.20
2022-12-19T08:47:14.851Z,1.30
2022-12-19T08:49:42.077Z,1.40
2022-12-19T08:52:09.497Z,1.60
2022-12-19T08:54:36.820Z,1.80
2022-12-19T08:57:04.085Z,1.90
2022-12-19T08:59:32.211Z,2.00
2022-12-19T09:02:00.977Z,2.20
2022-12-19T09:06:02.486Z,2.30
2022-12-19T09:07:16.656Z,2.40
2022-12-19T09:09:44.757Z,2.50
2022-12-19T09:12:13.815Z,2.50
2022-12-19T09:14:41.001Z,2.60
2022-12-19T09:17:08.949Z,2.70
2022-12-19T09:19:36.290Z,2.70
2022-12-19T09:22:03.536Z,2.80
2022-12-19T09:24:30.690Z,2.90
2022-12-19T09:26:57.851Z,2.90
2022-12-19T09:29:25.078Z,3.10
2022-12-19T09:31:56.166Z,3.20
2022-12-19T09:34:36.785Z,3.30
2022-12-19T09:37:07.728Z,3.40
2022-12-19T09:39:36.185Z,3.50
2022-12-19T09:42:14.361Z,3.60
2022-12-19T09:44:59.225Z,3.60
2022-12-19T09:47:31.849Z,3.70
2022-12-19T09:50:01.395Z,3.80
2022-12-19T09:52:40.088Z,3.80
2022-12-19T09:55:22.934Z,3.90
2022-12-19T09:57:59.648Z,3.70
2022-12-19T10:00:34.973Z,3.70
2022-12-19T10:03:17.183Z,3.80
2022-12-19T10:07:11.824Z,3.80
2022-12-19T10:09:59.307Z,4.00
2022-12-19T10:12:45.532Z,4.10
2022-12-19T10:15:41.232Z,4.10
2022-12-19T10:18:30.980Z,4.20
2022-12-19T10:21:04.411Z,4.20
2022-12-19T10:23:45.059Z,4.40
2022-12-19T10:26:20.815Z,4.30
2022-12-19T10:29:15.472Z,4.40
2022-12-19T10:32:11.547Z,4.40
2022-12-19T10:34:43.815Z,4.50
2022-12-19T10:37:49.421Z,4.50
2022-12-19T10:40:38.613Z,4.70
2022-12-19T10:43:15.261Z,4.70
2022-12-19T10:45:55.273Z,4.80
2022-12-19T10:48:31.053Z,4.80
2022-12-19T10:51:02.520Z,4.80
2022-12-19T10:53:34.532Z,4.80
2022-12-19T10:56:12.541Z,4.90
2022-12-19T10:58:43.652Z,4.90
2022-12-19T11:01:19.527Z,4.90
2022-12-19T11:03:51.930Z,4.90
2022-12-19T11:06:38.437Z,5.00
2022-12-19T11:09:27.589Z,5.10
2022-12-19T11:15:28.507Z,5.10
2022-12-19T11:21:44.211Z,5.10
2022-12-19T11:25:15.710Z,5.00
2022-12-19T11:29:39.899Z,5.00
2022-12-19T11:29:43.948Z,5.00
2022-12-19T11:30:45.727Z,5.00
2022-12-19T11:33:19.140Z,5.10
2022-12-19T11:35:55.816Z,5.20
2022-12-19T11:38:38.272Z,5.20
2022-12-19T11:41:11.976Z,5.30
2022-12-19T11:43:55.632Z,5.50
2022-12-19T11:46:44.111Z,5.60
2022-12-19T11:49:20.837Z,5.60
2022-12-19T11:52:54.227Z,5.60
2022-12-19T11:55:17.768Z,5.60
2022-12-19T11:57:46.264Z,5.60
2022-12-19T12:00:20.330Z,5.80
2022-12-19T12:03:09.005Z,5.80
2022-12-19T12:05:47.226Z,5.80
2022-12-19T12:10:51.119Z,5.80
2022-12-19T12:16:18.459Z,5.80
2022-12-19T12:24:11.473Z,5.80
2022-12-19T12:31:04.227Z,5.80
2022-12-19T12:31:08.849Z,5.90
2022-12-19T12:31:28.654Z,5.90
2022-12-19T12:31:52.920Z,5.90
2022-12-19T12:35:30.668Z,5.90
2022-12-19T12:40:55.274Z,6.00
2022-12-19T12:43:46.674Z,5.90
2022-12-19T12:46:27.316Z,5.90
2022-12-19T12:49:04.614Z,5.90
2022-12-19T12:51:34.473Z,5.90
2022-12-19T12:54:12.574Z,5.90
2022-12-19T12:56:41.148Z,5.90
2022-12-19T12:59:24.189Z,5.90
2022-12-19T13:02:13.874Z,5.90
2022-12-19T13:05:15.062Z,5.80
2022-12-19T13:07:50.178Z,5.90
2022-12-19T13:10:22.133Z,5.90
2022-12-19T13:13:02.744Z,5.80
2022-12-19T13:15:31.907Z,5.90
2022-12-19T13:18:28.697Z,5.90
2022-12-19T13:20:56.612Z,5.90
2022-12-19T13:23:29.626Z,5.90
2022-12-19T13:25:57.199Z,5.90
2022-12-19T13:28:24.316Z,5.90
2022-12-19T13:31:20.836Z,6.00
2022-12-19T13:33:53.524Z,6.00
2022-12-19T13:39:51.268Z,6.00
2022-12-19T13:40:08.778Z,6.00
2022-12-19T13:43:10.735Z,6.00
2022-12-19T13:45:41.317Z,5.90
2022-12-19T13:48:28.153Z,5.80
2022-12-19T13:50:56.907Z,5.70
2022-12-19T13:53:28.020Z,5.60
2022-12-19T13:56:00.601Z,5.50
2022-12-19T13:58:31.572Z,5.40
2022-12-19T14:01:06.657Z,5.40
2022-12-19T14:03:44.126Z,5.30
2022-12-19T14:06:23.664Z,5.20
2022-12-19T14:09:16.344Z,5.20
2022-12-19T14:13:45.575Z,5.10
2022-12-19T14:15:12.449Z,5.00
2022-12-19T14:17:37.779Z,5.00
2022-12-19T14:22:02.814Z,4.90
2022-12-19T14:23:10.171Z,4.90
2022-12-19T14:28:17.604Z,4.70
2022-12-19T14:28:54.599Z,4.60
2022-12-19T14:31:24.201Z,4.60
2022-12-19T14:34:11.575Z,4.50
2022-12-19T14:36:49.497Z,4.60
2022-12-19T14:39:24.874Z,4.50
2022-12-19T14:42:32.995Z,4.40
2022-12-19T14:54:03.916Z,4.30
2022-12-19T14:54:08.206Z,4.20
2022-12-19T14:54:15.112Z,4.20
2022-12-19T14:57:25.432Z,4.00
2022-12-19T15:01:10.431Z,3.90
2022-12-19T15:03:34.493Z,3.80
2022-12-19T15:07:04.850Z,3.70
2022-12-19T15:11:00.148Z,3.60
2022-12-19T15:14:48.270Z,3.50
2022-12-19T15:15:40.988Z,3.40
2022-12-19T15:18:32.600Z,3.30
2022-12-19T15:21:02.088Z,3.30
2022-12-19T15:23:30.087Z,3.20
2022-12-19T15:26:03.998Z,3.10
2022-12-19T15:28:41.539Z,3.10
2022-12-19T15:31:26.999Z,3.00
2022-12-19T15:36:41.908Z,2.90
2022-12-19T15:39:09.129Z,2.90
2022-12-19T15:41:36.493Z,2.80
2022-12-19T15:44:16.820Z,2.70
2022-12-19T15:46:48.699Z,2.60
2022-12-19T15:49:19.029Z,2.60
2022-12-19T15:51:46.636Z,2.50
2022-12-19T15:57:01.336Z,2.50
2022-12-19T15:59:38.137Z,2.50
2022-12-19T16:02:18.584Z,2.40
2022-12-19T16:04:47.714Z,2.40
2022-12-19T16:07:20.186Z,2.30
2022-12-19T16:09:47.957Z,2.30
2022-12-19T16:12:43.758Z,2.30
2022-12-19T16:15:17.761Z,2.30
2022-12-19T16:17:44.992Z,2.40
2022-12-19T16:20:24.231Z,2.30
2022-12-19T16:22:51.451Z,2.20
2022-12-19T16:25:19.454Z,2.20
2022-12-19T16:27:53.591Z,2.20
2022-12-19T16:30:25.513Z,2.20
2022-12-19T16:32:52.701Z,2.10
2022-12-19T16:35:40.231Z,2.10
2022-12-19T16:38:09.302Z,2.20
2022-12-19T16:40:36.598Z,2.20
2022-12-19T16:43:12.522Z,2.20
2022-12-19T16:45:39.981Z,2.10
2022-12-19T16:48:18.559Z,2.00
2022-12-19T16:50:45.924Z,2.10
2022-12-19T16:53:13.225Z,2.10
2022-12-19T16:55:40.550Z,2.00
2022-12-19T16:58:15.410Z,2.00
2022-12-19T17:00:42.695Z,2.00
2022-12-19T17:03:28.274Z,2.00
2022-12-19T17:05:56.564Z,1.90
2022-12-19T17:08:24.243Z,1.90
2022-12-19T17:10:53.144Z,1.90
2022-12-19T17:13:21.468Z,1.90
2022-12-19T17:15:55.954Z,1.80
2022-12-19T17:18:28.856Z,1.80
2022-12-19T17:20:56.078Z,1.80
2022-12-19T17:23:24.772Z,1.80
2022-12-19T17:25:54.688Z,1.80
2022-12-19T17:28:22.333Z,1.80
2022-12-19T17:30:53.218Z,1.70
2022-12-19T17:33:22.704Z,1.70
2022-12-19T17:35:49.963Z,1.70
2022-12-19T17:38:17.813Z,1.70
2022-12-19T17:40:46.417Z,1.70
2022-12-19T17:43:13.607Z,1.70
2022-12-19T17:45:41.690Z,1.70
2022-12-19T17:48:22.938Z,1.60
2022-12-19T17:50:51.508Z,1.60
2022-12-19T17:53:18.695Z,1.70
2022-12-19T17:55:46.695Z,1.70
2022-12-19T17:58:14.037Z,1.70
2022-12-19T18:00:42.170Z,1.80
2022-12-19T18:03:16.724Z,1.80
2022-12-19T18:05:44.247Z,1.80
2022-12-19T18:08:26.196Z,1.80
2022-12-19T18:10:54.183Z,1.80
2022-12-19T18:13:21.406Z,1.80
2022-12-19T18:15:49.043Z,1.80
2022-12-19T18:18:20.244Z,1.80
2022-12-19T18:20:47.982Z,1.70
2022-12-19T18:23:20.956Z,1.70
2022-12-19T18:25:48.775Z,1.80
2022-12-19T18:28:16.443Z,1.80
2022-12-19T18:30:45.779Z,1.80
2022-12-19T18:33:21.782Z,1.80
2022-12-19T18:35:50.691Z,1.80
2022-12-19T18:38:21.584Z,1.80
2022-12-19T18:40:51.819Z,1.80
2022-12-19T18:43:19.733Z,1.80
2022-12-19T18:45:54.458Z,1.80
2022-12-19T18:48:30.740Z,1.80
2022-12-19T18:50:59.506Z,1.80
2022-12-19T18:53:35.173Z,1.70
2022-12-19T18:56:05.884Z,1.80
2022-12-19T18:58:33.421Z,1.80
2022-12-19T19:01:02.114Z,1.80
2022-12-19T19:03:32.669Z,1.80
2022-12-19T19:06:00.126Z,1.90
2022-12-19T19:08:31.003Z,1.90
2022-12-19T19:11:23.396Z,1.90
2022-12-19T19:13:51.430Z,1.90
2022-12-19T19:16:22.285Z,1.90
2022-12-19T19:18:55.643Z,1.90
2022-12-19T19:21:34.633Z,1.90
2022-12-19T19:24:05.902Z,1.90
2022-12-19T19:26:33.116Z,1.90
2022-12-19T19:29:00.427Z,1.80
2022-12-19T19:31:29.668Z,1.80
2022-12-19T19:34:21.533Z,1.90
2022-12-19T19:36:53.449Z,1.90
2022-12-19T19:39:22.682Z,1.90
2022-12-19T19:41:49.920Z,1.90
2022-12-19T19:44:18.867Z,1.90
2022-12-19T19:46:46.150Z,1.90
2022-12-19T19:49:13.438Z,1.90
2022-12-19T19:51:40.739Z,1.80
2022-12-19T19:54:07.991Z,1.80
2022-12-19T19:56:35.422Z,1.80
2022-12-19T19:59:02.672Z,1.60
2022-12-19T20:01:30.205Z,1.50
2022-12-19T20:03:57.723Z,1.50
2022-12-19T20:06:25.564Z,1.50
2022-12-19T20:08:52.753Z,1.50
2022-12-19T20:11:20.672Z,1.50
2022-12-19T20:13:47.831Z,1.50
2022-12-19T20:16:17.793Z,1.50
2022-12-19T20:18:49.922Z,1.50
2022-12-19T20:21:18.212Z,1.60
2022-12-19T20:23:45.648Z,1.60
2022-12-19T20:26:13.752Z,1.60
2022-12-19T20:28:48.417Z,1.60
2022-12-19T20:31:18.785Z,1.50
2022-12-19T20:33:46.368Z,1.50
2022-12-19T20:36:14.541Z,1.50
2022-12-19T20:38:41.977Z,1.50
2022-12-19T20:41:09.164Z,1.50
2022-12-19T20:43:38.321Z,1.50
2022-12-19T20:46:08.603Z,1.50
2022-12-19T20:48:36.687Z,1.50
2022-12-19T20:51:04.770Z,1.50
2022-12-19T20:53:33.668Z,1.50
2022-12-19T20:56:02.467Z,1.40
2022-12-19T20:58:31.710Z,1.40
2022-12-19T21:01:10.827Z,1.40
2022-12-19T21:03:39.424Z,1.40
2022-12-19T21:06:08.284Z,1.40
2022-12-19T21:08:36.094Z,1.40
2022-12-19T21:11:05.237Z,1.40
2022-12-19T21:13:32.928Z,1.40
2022-12-19T21:16:03.037Z,1.40
2022-12-19T21:18:30.624Z,1.40
2022-12-19T21:20:59.162Z,1.40
2022-12-19T21:23:27.099Z,1.50
2022-12-19T21:25:58.360Z,1.50
2022-12-19T21:28:25.635Z,1.50
2022-12-19T21:31:20.455Z,1.50
2022-12-19T21:33:48.076Z,1.50
2022-12-19T21:36:19.403Z,1.40
2022-12-19T21:38:52.349Z,1.40
2022-12-19T21:41:19.807Z,1.50
2022-12-19T21:43:51.494Z,1.50
2022-12-19T21:46:19.483Z,1.50
2022-12-19T21:48:49.576Z,1.50
2022-12-19T21:51:19.113Z,1.50
2022-12-19T21:53:47.329Z,1.50
2022-12-19T21:56:30.588Z,1.50
2022-12-19T21:59:01.801Z,1.50
2022-12-19T22:01:30.517Z,1.50
2022-12-19T22:04:02.447Z,1.50
2022-12-19T22:06:32.890Z,1.40
2022-12-19T22:09:01.310Z,1.40
2022-12-19T22:11:29.533Z,1.40
2022-12-19T22:13:59.096Z,1.50
2022-12-19T22:16:26.801Z,1.40
2022-12-19T22:18:54.917Z,1.50
2022-12-19T22:21:22.928Z,1.40
2022-12-19T22:23:56.014Z,1.40
2022-12-19T22:26:23.761Z,1.40
2022-12-19T22:28:53.412Z,1.50
2022-12-19T22:31:23.674Z,1.50
2022-12-19T22:33:57.052Z,1.40
2022-12-19T22:36:28.295Z,1.50
2022-12-19T22:38:57.856Z,1.50
2022-12-19T22:41:25.720Z,1.40
2022-12-19T22:43:54.022Z,1.50
2022-12-19T22:46:21.286Z,1.40
2022-12-19T22:48:50.147Z,1.50
2022-12-19T22:51:18.802Z,1.50
2022-12-19T22:53:46.554Z,1.50
2022-12-19T22:56:17.046Z,1.50
2022-12-19T22:58:46.254Z,1.50
2022-12-19T23:01:17.869Z,1.60
2022-12-19T23:03:46.518Z,1.60
2022-12-19T23:06:14.676Z,1.70
2022-12-19T23:08:42.872Z,1.60
2022-12-19T23:11:13.726Z,1.70
2022-12-19T23:13:41.732Z,1.70
2022-12-19T23:16:09.551Z,1.60
2022-12-19T23:18:37.338Z,1.60
2022-12-19T23:21:10.726Z,1.60
2022-12-19T23:23:39.792Z,1.60
2022-12-19T23:26:16.004Z,1.60
2022-12-19T23:28:44.950Z,1.60
2022-12-19T23:31:13.526Z,1.60
2022-12-19T23:33:40.996Z,1.60
2022-12-19T23:36:08.421Z,1.60
2022-12-19T23:38:35.595Z,1.60
2022-12-19T23:41:08.587Z,1.60
2022-12-19T23:43:36.864Z,1.70
2022-12-19T23:46:09.416Z,1.70
2022-12-19T23:48:36.951Z,1.70
2022-12-19T23:51:07.842Z,1.70
2022-12-19T23:53:35.389Z,1.60
2022-12-19T23:56:23.484Z,1.70
2022-12-19T23:58:51.071Z,1.60
